Ana Sayfa
METAR-TAF:

METAR-TAF

Havaalanları :

Darüsselam, Tanzanya

Enlem: 06-52S, Boylam: 039-12E, yükseklik: 55 m

Güncel hava durumu gözlemi

Rapor saat 21:00 UTC de 5 saat ve 13 dakika önce yapıldı.
Sakin rüzgar
Sıcaklık 24°C
Nem 94%
Basınç 1014 hPa
Görüş mesafesi 10 km veya daha fazla
1500 ft yükseklikte az bulutlu

METAR: HTDA 252100Z 00000KT 9999 FEW015 24/23 Q1014 NOSIG

Saat: 05:13 (02:13 UTC)

Tahmin

Rapor saat 23:00 UTC de 3 saat ve 13 dakika önce yapıldı.
Ayın 26'si saat 00 UTC'den ayın 27'si saat 06 UTC'ye kadar geçerli Tahmin
Rüzgar kuzeydan kt
Görüş mesafesi 10 km veya daha fazla
1500 ft yükseklikte az bulutlu
Dönüşüyor
ayın 26'si saat 06 UTC'den ayın 26'si saat 09 UTC'ye kadar
Rüzgar güneydan 10 kt
1800 ft yükseklikte parçalı çok bulutlu
1900 ft yükseklikte az bulutlu, Kümülonimbus.

TAF: HTDA 252300Z 2600/2706 00000KT 9999 FEW015 BECMG 2606/2609 17010KT BKN018 FEW019CB

4.000'den fazla havaalanı için hava durumu gözlemleri ve tahminleri (METAR ve TAF raporları).

Kullanılabilir istasyonlar harita üzerinde sarı ve kırmızı noktalarla gösterilir.

İstasyonun adını görmek için fareyi noktanın üzerinde gezdirin.

Sonrasında hava gözlem ve tahminlerini görmek için tıklayın.

Haritayı değiştirmek için: yaklaştırmak için siyah artı işaretli yeşil düğmeye ve uzaklaştırmak için de eksi işaretli düğmeye hızla tıklayın; bitişik haritalar için yeşil okları kullanın.


METAR-TAF: